sensor_id;sensor_type;location;lat;lon;timestamp;temperature;humidity
23120;DHT22;11729;50.836;4.330;2023-09-12T00:02:24;23.40;99.90
23120;DHT22;11729;50.836;4.330;2023-09-12T00:04:50;23.30;99.90
23120;DHT22;11729;50.836;4.330;2023-09-12T00:07:16;23.30;99.90
23120;DHT22;11729;50.836;4.330;2023-09-12T00:09:42;23.30;99.90
23120;DHT22;11729;50.836;4.330;2023-09-12T00:12:08;23.40;99.90
23120;DHT22;11729;50.836;4.330;2023-09-12T00:14:33;23.30;99.90
23120;DHT22;11729;50.836;4.330;2023-09-12T00:16:59;23.30;99.90
23120;DHT22;11729;50.836;4.330;2023-09-12T00:19:25;23.20;99.90
23120;DHT22;11729;50.836;4.330;2023-09-12T00:21:51;23.20;99.90
23120;DHT22;11729;50.836;4.330;2023-09-12T00:24:18;23.30;99.90
23120;DHT22;11729;50.836;4.330;2023-09-12T00:26:44;23.30;99.90
23120;DHT22;11729;50.836;4.330;2023-09-12T00:29:10;23.30;99.90
23120;DHT22;11729;50.836;4.330;2023-09-12T00:31:35;23.40;99.90
23120;DHT22;11729;50.836;4.330;2023-09-12T00:34:01;23.40;99.90
23120;DHT22;11729;50.836;4.330;2023-09-12T00:36:26;23.40;99.90
23120;DHT22;11729;50.836;4.330;2023-09-12T00:38:52;23.40;99.90
23120;DHT22;11729;50.836;4.330;2023-09-12T00:41:19;23.40;99.90
23120;DHT22;11729;50.836;4.330;2023-09-12T00:43:44;23.40;99.90
23120;DHT22;11729;50.836;4.330;2023-09-12T00:46:10;23.40;99.90
23120;DHT22;11729;50.836;4.330;2023-09-12T00:48:41;23.40;99.90
23120;DHT22;11729;50.836;4.330;2023-09-12T00:51:08;23.40;99.90
23120;DHT22;11729;50.836;4.330;2023-09-12T00:53:34;23.30;99.90
23120;DHT22;11729;50.836;4.330;2023-09-12T00:55:59;23.10;99.90
23120;DHT22;11729;50.836;4.330;2023-09-12T00:58:31;23.10;99.90
23120;DHT22;11729;50.836;4.330;2023-09-12T01:00:57;23.10;99.90
23120;DHT22;11729;50.836;4.330;2023-09-12T01:03:24;23.00;99.90
23120;DHT22;11729;50.836;4.330;2023-09-12T01:05:53;22.90;99.90
23120;DHT22;11729;50.836;4.330;2023-09-12T01:08:22;22.90;99.90
23120;DHT22;11729;50.836;4.330;2023-09-12T01:10:52;22.90;99.90
23120;DHT22;11729;50.836;4.330;2023-09-12T01:13:19;22.80;99.90
23120;DHT22;11729;50.836;4.330;2023-09-12T01:15:45;22.70;99.90
23120;DHT22;11729;50.836;4.330;2023-09-12T01:18:11;22.60;99.90
23120;DHT22;11729;50.836;4.330;2023-09-12T01:20:39;22.60;99.90
23120;DHT22;11729;50.836;4.330;2023-09-12T01:26:01;22.60;99.90
23120;DHT22;11729;50.836;4.330;2023-09-12T01:28:34;22.40;99.90
23120;DHT22;11729;50.836;4.330;2023-09-12T01:31:01;22.40;99.90
23120;DHT22;11729;50.836;4.330;2023-09-12T01:33:29;22.40;99.90
23120;DHT22;11729;50.836;4.330;2023-09-12T01:35:54;22.40;99.90
23120;DHT22;11729;50.836;4.330;2023-09-12T01:38:21;22.40;99.90
23120;DHT22;11729;50.836;4.330;2023-09-12T01:40:49;22.40;99.90
23120;DHT22;11729;50.836;4.330;2023-09-12T01:43:17;22.30;99.90
23120;DHT22;11729;50.836;4.330;2023-09-12T01:45:46;22.30;99.90
23120;DHT22;11729;50.836;4.330;2023-09-12T01:48:14;22.20;99.90
23120;DHT22;11729;50.836;4.330;2023-09-12T01:50:44;22.20;99.90
23120;DHT22;11729;50.836;4.330;2023-09-12T01:53:10;22.20;99.90
23120;DHT22;11729;50.836;4.330;2023-09-12T01:55:37;22.30;99.90
23120;DHT22;11729;50.836;4.330;2023-09-12T01:58:04;22.20;99.90
23120;DHT22;11729;50.836;4.330;2023-09-12T02:00:30;22.20;99.90
23120;DHT22;11729;50.836;4.330;2023-09-12T02:02:56;22.20;99.90
23120;DHT22;11729;50.836;4.330;2023-09-12T02:05:22;22.20;99.90
23120;DHT22;11729;50.836;4.330;2023-09-12T02:07:49;22.30;99.90
23120;DHT22;11729;50.836;4.330;2023-09-12T02:10:17;22.40;99.90
23120;DHT22;11729;50.836;4.330;2023-09-12T02:12:43;22.50;99.90
23120;DHT22;11729;50.836;4.330;2023-09-12T02:15:11;22.50;99.90
23120;DHT22;11729;50.836;4.330;2023-09-12T02:17:38;22.50;99.90
23120;DHT22;11729;50.836;4.330;2023-09-12T02:20:08;22.60;99.90
23120;DHT22;11729;50.836;4.330;2023-09-12T02:22:34;22.60;99.90
23120;DHT22;11729;50.836;4.330;2023-09-12T02:24:59;22.60;99.90
23120;DHT22;11729;50.836;4.330;2023-09-12T02:27:26;22.60;99.90
23120;DHT22;11729;50.836;4.330;2023-09-12T02:29:52;22.50;99.90
23120;DHT22;11729;50.836;4.330;2023-09-12T02:32:17;22.50;99.90
23120;DHT22;11729;50.836;4.330;2023-09-12T02:34:44;22.60;99.90
23120;DHT22;11729;50.836;4.330;2023-09-12T02:37:11;22.50;99.90
23120;DHT22;11729;50.836;4.330;2023-09-12T02:39:36;22.50;99.90
23120;DHT22;11729;50.836;4.330;2023-09-12T02:42:02;22.40;99.90
23120;DHT22;11729;50.836;4.330;2023-09-12T02:44:28;22.40;99.90
23120;DHT22;11729;50.836;4.330;2023-09-12T02:46:53;22.40;99.90
23120;DHT22;11729;50.836;4.330;2023-09-12T02:49:19;22.30;99.90
23120;DHT22;11729;50.836;4.330;2023-09-12T02:51:45;22.20;99.90
23120;DHT22;11729;50.836;4.330;2023-09-12T02:54:11;22.30;99.90
23120;DHT22;11729;50.836;4.330;2023-09-12T02:56:36;22.20;99.90
23120;DHT22;11729;50.836;4.330;2023-09-12T02:59:03;22.10;99.90
23120;DHT22;11729;50.836;4.330;2023-09-12T03:01:30;22.20;99.90
23120;DHT22;11729;50.836;4.330;2023-09-12T03:03:57;22.30;99.90
23120;DHT22;11729;50.836;4.330;2023-09-12T03:06:23;22.40;99.90
23120;DHT22;11729;50.836;4.330;2023-09-12T03:08:50;22.50;99.90
23120;DHT22;11729;50.836;4.330;2023-09-12T03:11:18;22.40;99.90
23120;DHT22;11729;50.836;4.330;2023-09-12T03:13:44;22.40;99.90
23120;DHT22;11729;50.836;4.330;2023-09-12T03:16:11;22.40;99.90
23120;DHT22;11729;50.836;4.330;2023-09-12T03:18:37;22.50;99.90
23120;DHT22;11729;50.836;4.330;2023-09-12T03:21:03;22.50;99.90
23120;DHT22;11729;50.836;4.330;2023-09-12T03:23:29;22.50;99.90
23120;DHT22;11729;50.836;4.330;2023-09-12T03:25:54;22.50;99.90
23120;DHT22;11729;50.836;4.330;2023-09-12T03:28:21;22.50;99.90
23120;DHT22;11729;50.836;4.330;2023-09-12T03:30:47;22.60;99.90
23120;DHT22;11729;50.836;4.330;2023-09-12T03:33:12;22.50;99.90
23120;DHT22;11729;50.836;4.330;2023-09-12T03:35:38;22.50;99.90
23120;DHT22;11729;50.836;4.330;2023-09-12T03:38:04;22.40;99.90
23120;DHT22;11729;50.836;4.330;2023-09-12T03:40:29;22.40;99.90
23120;DHT22;11729;50.836;4.330;2023-09-12T03:42:56;22.40;99.90
23120;DHT22;11729;50.836;4.330;2023-09-12T03:45:22;22.40;99.90
23120;DHT22;11729;50.836;4.330;2023-09-12T03:47:47;22.30;99.90
23120;DHT22;11729;50.836;4.330;2023-09-12T03:50:13;22.30;99.90
23120;DHT22;11729;50.836;4.330;2023-09-12T03:52:40;22.40;99.90
23120;DHT22;11729;50.836;4.330;2023-09-12T03:55:06;22.40;99.90
23120;DHT22;11729;50.836;4.330;2023-09-12T03:57:32;22.40;99.90
23120;DHT22;11729;50.836;4.330;2023-09-12T03:59:57;22.30;99.90
23120;DHT22;11729;50.836;4.330;2023-09-12T04:02:23;22.30;99.90
23120;DHT22;11729;50.836;4.330;2023-09-12T04:04:55;22.40;99.90
23120;DHT22;11729;50.836;4.330;2023-09-12T04:07:24;22.40;99.90
23120;DHT22;11729;50.836;4.330;2023-09-12T04:09:51;22.30;99.90
23120;DHT22;11729;50.836;4.330;2023-09-12T04:12:23;22.40;99.90
23120;DHT22;11729;50.836;4.330;2023-09-12T04:14:50;22.40;99.90
23120;DHT22;11729;50.836;4.330;2023-09-12T04:17:17;22.40;99.90
23120;DHT22;11729;50.836;4.330;2023-09-12T04:19:42;22.40;99.90
23120;DHT22;11729;50.836;4.330;2023-09-12T04:22:08;22.40;99.90
23120;DHT22;11729;50.836;4.330;2023-09-12T04:24:35;22.50;99.90
23120;DHT22;11729;50.836;4.330;2023-09-12T04:27:04;22.50;99.90
23120;DHT22;11729;50.836;4.330;2023-09-12T04:29:35;22.50;99.90
23120;DHT22;11729;50.836;4.330;2023-09-12T04:32:04;22.40;99.90
23120;DHT22;11729;50.836;4.330;2023-09-12T04:34:30;22.50;99.90
23120;DHT22;11729;50.836;4.330;2023-09-12T04:36:57;22.40;99.90
23120;DHT22;11729;50.836;4.330;2023-09-12T04:39:23;22.30;99.90
23120;DHT22;11729;50.836;4.330;2023-09-12T04:41:49;22.30;99.90
23120;DHT22;11729;50.836;4.330;2023-09-12T04:44:14;22.20;99.90
23120;DHT22;11729;50.836;4.330;2023-09-12T04:46:40;22.20;99.90
23120;DHT22;11729;50.836;4.330;2023-09-12T04:49:06;22.20;99.90
23120;DHT22;11729;50.836;4.330;2023-09-12T04:51:31;22.30;99.90
23120;DHT22;11729;50.836;4.330;2023-09-12T04:53:57;22.30;99.90
23120;DHT22;11729;50.836;4.330;2023-09-12T04:56:22;22.30;99.90
23120;DHT22;11729;50.836;4.330;2023-09-12T04:58:51;22.30;99.90
23120;DHT22;11729;50.836;4.330;2023-09-12T05:01:17;22.30;99.90
23120;DHT22;11729;50.836;4.330;2023-09-12T05:03:43;22.30;99.90
23120;DHT22;11729;50.836;4.330;2023-09-12T05:06:09;22.20;99.90
23120;DHT22;11729;50.836;4.330;2023-09-12T05:08:35;22.00;99.90
23120;DHT22;11729;50.836;4.330;2023-09-12T05:11:02;22.00;99.90
23120;DHT22;11729;50.836;4.330;2023-09-12T05:13:28;22.10;99.90
23120;DHT22;11729;50.836;4.330;2023-09-12T05:15:54;22.10;99.90
23120;DHT22;11729;50.836;4.330;2023-09-12T05:18:21;22.00;99.90
23120;DHT22;11729;50.836;4.330;2023-09-12T05:20:46;22.00;99.90
23120;DHT22;11729;50.836;4.330;2023-09-12T05:23:12;21.90;99.90
23120;DHT22;11729;50.836;4.330;2023-09-12T05:25:37;21.90;99.90
23120;DHT22;11729;50.836;4.330;2023-09-12T05:28:03;21.90;99.90
23120;DHT22;11729;50.836;4.330;2023-09-12T05:30:30;21.90;99.90
23120;DHT22;11729;50.836;4.330;2023-09-12T05:32:55;21.80;99.90
23120;DHT22;11729;50.836;4.330;2023-09-12T05:35:21;21.70;99.90
23120;DHT22;11729;50.836;4.330;2023-09-12T05:37:47;21.70;99.90
23120;DHT22;11729;50.836;4.330;2023-09-12T05:40:13;21.70;99.90
23120;DHT22;11729;50.836;4.330;2023-09-12T05:42:38;21.70;99.90
23120;DHT22;11729;50.836;4.330;2023-09-12T05:45:06;21.80;99.90
23120;DHT22;11729;50.836;4.330;2023-09-12T05:47:32;21.70;99.90
23120;DHT22;11729;50.836;4.330;2023-09-12T05:49:58;21.70;99.90
23120;DHT22;11729;50.836;4.330;2023-09-12T05:52:25;21.60;99.90
23120;DHT22;11729;50.836;4.330;2023-09-12T05:54:51;21.60;99.90
23120;DHT22;11729;50.836;4.330;2023-09-12T05:57:16;21.60;99.90
23120;DHT22;11729;50.836;4.330;2023-09-12T05:59:43;21.70;99.90
23120;DHT22;11729;50.836;4.330;2023-09-12T06:02:08;21.80;99.90
23120;DHT22;11729;50.836;4.330;2023-09-12T06:04:35;21.90;99.90
23120;DHT22;11729;50.836;4.330;2023-09-12T06:07:04;22.00;99.90
23120;DHT22;11729;50.836;4.330;2023-09-12T06:09:30;22.10;99.90
23120;DHT22;11729;50.836;4.330;2023-09-12T06:11:56;22.10;99.90
23120;DHT22;11729;50.836;4.330;2023-09-12T06:14:21;22.30;99.90
23120;DHT22;11729;50.836;4.330;2023-09-12T06:16:47;22.30;99.90
23120;DHT22;11729;50.836;4.330;2023-09-12T06:19:12;22.40;99.90
23120;DHT22;11729;50.836;4.330;2023-09-12T06:21:40;22.60;99.90
23120;DHT22;11729;50.836;4.330;2023-09-12T06:24:13;22.70;99.90
23120;DHT22;11729;50.836;4.330;2023-09-12T06:26:39;22.90;99.90
23120;DHT22;11729;50.836;4.330;2023-09-12T06:29:05;22.90;99.90
23120;DHT22;11729;50.836;4.330;2023-09-12T06:31:31;23.00;99.90
23120;DHT22;11729;50.836;4.330;2023-09-12T06:33:57;23.10;99.90
23120;DHT22;11729;50.836;4.330;2023-09-12T06:36:25;23.10;99.90
23120;DHT22;11729;50.836;4.330;2023-09-12T06:38:51;23.10;99.90
23120;DHT22;11729;50.836;4.330;2023-09-12T06:41:20;23.30;99.90
23120;DHT22;11729;50.836;4.330;2023-09-12T06:43:46;23.50;99.90
23120;DHT22;11729;50.836;4.330;2023-09-12T06:46:12;23.50;99.90
23120;DHT22;11729;50.836;4.330;2023-09-12T06:48:38;23.50;99.90
23120;DHT22;11729;50.836;4.330;2023-09-12T06:51:08;23.70;99.90
23120;DHT22;11729;50.836;4.330;2023-09-12T06:53:35;23.70;99.90
23120;DHT22;11729;50.836;4.330;2023-09-12T06:56:05;23.80;99.90
23120;DHT22;11729;50.836;4.330;2023-09-12T06:58:31;23.70;99.90
23120;DHT22;11729;50.836;4.330;2023-09-12T07:01:07;23.70;99.90
23120;DHT22;11729;50.836;4.330;2023-09-12T07:03:36;23.70;99.90
23120;DHT22;11729;50.836;4.330;2023-09-12T07:06:02;23.90;99.90
23120;DHT22;11729;50.836;4.330;2023-09-12T07:08:31;23.90;99.90
23120;DHT22;11729;50.836;4.330;2023-09-12T07:10:58;24.10;99.90
23120;DHT22;11729;50.836;4.330;2023-09-12T07:13:30;24.20;99.90
23120;DHT22;11729;50.836;4.330;2023-09-12T07:15:56;24.10;99.90
23120;DHT22;11729;50.836;4.330;2023-09-12T07:18:22;24.00;99.90
23120;DHT22;11729;50.836;4.330;2023-09-12T07:20:57;24.00;99.90
23120;DHT22;11729;50.836;4.330;2023-09-12T07:23:23;24.00;99.90
23120;DHT22;11729;50.836;4.330;2023-09-12T07:25:49;23.90;99.90
23120;DHT22;11729;50.836;4.330;2023-09-12T07:28:18;23.70;99.90
23120;DHT22;11729;50.836;4.330;2023-09-12T07:30:46;23.90;99.90
23120;DHT22;11729;50.836;4.330;2023-09-12T07:33:12;24.30;99.90
23120;DHT22;11729;50.836;4.330;2023-09-12T07:35:37;24.80;99.90
23120;DHT22;11729;50.836;4.330;2023-09-12T07:38:03;25.40;99.90
23120;DHT22;11729;50.836;4.330;2023-09-12T07:40:29;25.40;99.90
23120;DHT22;11729;50.836;4.330;2023-09-12T07:42:55;25.50;99.90
23120;DHT22;11729;50.836;4.330;2023-09-12T07:45:20;25.50;99.90
23120;DHT22;11729;50.836;4.330;2023-09-12T07:47:46;25.70;99.90
23120;DHT22;11729;50.836;4.330;2023-09-12T07:50:13;26.10;99.90
23120;DHT22;11729;50.836;4.330;2023-09-12T07:52:39;26.30;99.90
23120;DHT22;11729;50.836;4.330;2023-09-12T07:55:06;26.30;99.90
23120;DHT22;11729;50.836;4.330;2023-09-12T07:57:32;26.20;99.90
23120;DHT22;11729;50.836;4.330;2023-09-12T07:59:58;26.40;99.90
23120;DHT22;11729;50.836;4.330;2023-09-12T08:02:24;26.50;99.90
23120;DHT22;11729;50.836;4.330;2023-09-12T08:04:50;27.10;99.90
23120;DHT22;11729;50.836;4.330;2023-09-12T08:07:16;27.90;99.90
23120;DHT22;11729;50.836;4.330;2023-09-12T08:09:53;28.70;99.90
23120;DHT22;11729;50.836;4.330;2023-09-12T08:12:20;29.20;99.90
23120;DHT22;11729;50.836;4.330;2023-09-12T08:14:46;30.00;99.90
23120;DHT22;11729;50.836;4.330;2023-09-12T08:17:12;30.60;99.90
23120;DHT22;11729;50.836;4.330;2023-09-12T08:19:38;31.10;99.90
23120;DHT22;11729;50.836;4.330;2023-09-12T08:22:07;31.30;99.90
23120;DHT22;11729;50.836;4.330;2023-09-12T08:24:36;31.70;99.90
23120;DHT22;11729;50.836;4.330;2023-09-12T08:27:02;31.10;99.90
23120;DHT22;11729;50.836;4.330;2023-09-12T08:29:28;31.10;99.90
23120;DHT22;11729;50.836;4.330;2023-09-12T08:31:54;31.50;99.90
23120;DHT22;11729;50.836;4.330;2023-09-12T08:34:23;32.40;99.90
23120;DHT22;11729;50.836;4.330;2023-09-12T08:36:48;32.70;97.70
23120;DHT22;11729;50.836;4.330;2023-09-12T08:39:15;32.10;98.90
23120;DHT22;11729;50.836;4.330;2023-09-12T08:41:42;32.10;98.30
23120;DHT22;11729;50.836;4.330;2023-09-12T08:44:09;32.30;98.50
23120;DHT22;11729;50.836;4.330;2023-09-12T08:46:35;32.60;98.50
23120;DHT22;11729;50.836;4.330;2023-09-12T08:49:04;33.00;97.00
23120;DHT22;11729;50.836;4.330;2023-09-12T08:51:30;33.50;95.90
23120;DHT22;11729;50.836;4.330;2023-09-12T08:53:57;33.90;95.60
23120;DHT22;11729;50.836;4.330;2023-09-12T08:56:23;34.20;93.80
23120;DHT22;11729;50.836;4.330;2023-09-12T08:58:50;34.10;93.30
23120;DHT22;11729;50.836;4.330;2023-09-12T09:01:18;34.10;93.10
23120;DHT22;11729;50.836;4.330;2023-09-12T09:03:44;34.00;93.50
23120;DHT22;11729;50.836;4.330;2023-09-12T09:06:11;34.10;93.80
23120;DHT22;11729;50.836;4.330;2023-09-12T09:08:39;34.20;92.90
23120;DHT22;11729;50.836;4.330;2023-09-12T09:11:05;32.80;94.20
23120;DHT22;11729;50.836;4.330;2023-09-12T09:13:33;32.90;96.10
23120;DHT22;11729;50.836;4.330;2023-09-12T09:16:18;33.70;94.60
23120;DHT22;11729;50.836;4.330;2023-09-12T09:21:18;34.70;92.00
23120;DHT22;11729;50.836;4.330;2023-09-12T09:23:46;35.10;90.40
23120;DHT22;11729;50.836;4.330;2023-09-12T09:26:12;35.30;90.60
23120;DHT22;11729;50.836;4.330;2023-09-12T09:28:38;35.90;87.30
23120;DHT22;11729;50.836;4.330;2023-09-12T09:31:05;35.90;86.20
23120;DHT22;11729;50.836;4.330;2023-09-12T09:33:35;35.70;85.40
23120;DHT22;11729;50.836;4.330;2023-09-12T09:36:06;35.30;88.20
23120;DHT22;11729;50.836;4.330;2023-09-12T09:38:33;34.60;88.40
23120;DHT22;11729;50.836;4.330;2023-09-12T09:40:59;35.10;87.90
23120;DHT22;11729;50.836;4.330;2023-09-12T09:43:25;35.40;88.10
23120;DHT22;11729;50.836;4.330;2023-09-12T09:45:51;35.50;85.60
23120;DHT22;11729;50.836;4.330;2023-09-12T09:48:24;35.90;84.70
23120;DHT22;11729;50.836;4.330;2023-09-12T09:50:53;36.20;82.20
23120;DHT22;11729;50.836;4.330;2023-09-12T09:53:30;35.60;82.40
23120;DHT22;11729;50.836;4.330;2023-09-12T09:56:11;35.30;84.80
23120;DHT22;11729;50.836;4.330;2023-09-12T10:01:17;35.60;85.10
23120;DHT22;11729;50.836;4.330;2023-09-12T10:03:46;36.30;83.50
23120;DHT22;11729;50.836;4.330;2023-09-12T10:06:15;36.40;81.30
23120;DHT22;11729;50.836;4.330;2023-09-12T10:08:49;36.60;80.80
23120;DHT22;11729;50.836;4.330;2023-09-12T10:11:16;36.70;79.80
23120;DHT22;11729;50.836;4.330;2023-09-12T10:13:56;37.20;78.40
23120;DHT22;11729;50.836;4.330;2023-09-12T10:16:24;37.10;78.00
23120;DHT22;11729;50.836;4.330;2023-09-12T10:21:34;36.80;76.50
23120;DHT22;11729;50.836;4.330;2023-09-12T10:24:03;35.90;80.30
23120;DHT22;11729;50.836;4.330;2023-09-12T10:26:31;36.30;80.30
23120;DHT22;11729;50.836;4.330;2023-09-12T10:28:57;36.60;78.90
23120;DHT22;11729;50.836;4.330;2023-09-12T10:31:25;36.30;77.90
23120;DHT22;11729;50.836;4.330;2023-09-12T10:33:52;35.60;80.60
23120;DHT22;11729;50.836;4.330;2023-09-12T10:36:19;35.40;81.60
23120;DHT22;11729;50.836;4.330;2023-09-12T10:38:47;34.80;83.30
23120;DHT22;11729;50.836;4.330;2023-09-12T10:41:14;35.00;81.20
23120;DHT22;11729;50.836;4.330;2023-09-12T10:43:40;34.30;83.40
23120;DHT22;11729;50.836;4.330;2023-09-12T10:46:07;33.80;85.20
23120;DHT22;11729;50.836;4.330;2023-09-12T10:48:35;33.50;85.70
23120;DHT22;11729;50.836;4.330;2023-09-12T10:51:01;32.30;90.00
23120;DHT22;11729;50.836;4.330;2023-09-12T10:53:30;31.20;92.20
23120;DHT22;11729;50.836;4.330;2023-09-12T11:01:42;29.90;96.90
23120;DHT22;11729;50.836;4.330;2023-09-12T11:06:52;30.90;97.40
23120;DHT22;11729;50.836;4.330;2023-09-12T11:09:21;31.60;96.20
23120;DHT22;11729;50.836;4.330;2023-09-12T11:11:55;32.00;95.90
23120;DHT22;11729;50.836;4.330;2023-09-12T11:14:21;32.00;93.50
23120;DHT22;11729;50.836;4.330;2023-09-12T11:19:44;33.10;94.00
23120;DHT22;11729;50.836;4.330;2023-09-12T11:22:31;34.20;91.90
23120;DHT22;11729;50.836;4.330;2023-09-12T11:24:57;35.10;90.40
23120;DHT22;11729;50.836;4.330;2023-09-12T11:28:02;35.30;84.00
23120;DHT22;11729;50.836;4.330;2023-09-12T11:30:29;35.10;88.10
23120;DHT22;11729;50.836;4.330;2023-09-12T11:32:57;35.60;85.40
23120;DHT22;11729;50.836;4.330;2023-09-12T11:35:27;36.00;83.80
23120;DHT22;11729;50.836;4.330;2023-09-12T11:37:55;36.70;81.30
23120;DHT22;11729;50.836;4.330;2023-09-12T11:40:40;37.30;80.70
23120;DHT22;11729;50.836;4.330;2023-09-12T11:43:06;38.10;74.60
23120;DHT22;11729;50.836;4.330;2023-09-12T11:45:33;38.40;74.20
23120;DHT22;11729;50.836;4.330;2023-09-12T11:47:59;38.70;71.20
23120;DHT22;11729;50.836;4.330;2023-09-12T11:50:35;38.80;70.10
23120;DHT22;11729;50.836;4.330;2023-09-12T11:53:06;38.00;72.10
23120;DHT22;11729;50.836;4.330;2023-09-12T11:55:47;37.40;73.60
23120;DHT22;11729;50.836;4.330;2023-09-12T11:58:15;37.10;73.30
23120;DHT22;11729;50.836;4.330;2023-09-12T12:00:54;36.00;72.80
23120;DHT22;11729;50.836;4.330;2023-09-12T12:03:23;35.60;77.10
23120;DHT22;11729;50.836;4.330;2023-09-12T12:05:49;35.90;76.40
23120;DHT22;11729;50.836;4.330;2023-09-12T12:08:16;35.60;75.40
23120;DHT22;11729;50.836;4.330;2023-09-12T12:10:42;35.20;77.00
23120;DHT22;11729;50.836;4.330;2023-09-12T12:13:11;34.60;77.70
23120;DHT22;11729;50.836;4.330;2023-09-12T12:15:37;34.10;80.30
23120;DHT22;11729;50.836;4.330;2023-09-12T12:18:03;33.50;81.30
23120;DHT22;11729;50.836;4.330;2023-09-12T12:20:29;33.70;84.70
23120;DHT22;11729;50.836;4.330;2023-09-12T12:22:55;34.30;80.40
23120;DHT22;11729;50.836;4.330;2023-09-12T12:25:21;34.00;82.20
23120;DHT22;11729;50.836;4.330;2023-09-12T12:27:47;34.00;81.00
23120;DHT22;11729;50.836;4.330;2023-09-12T12:30:14;33.90;81.90
23120;DHT22;11729;50.836;4.330;2023-09-12T12:32:43;33.70;79.90
23120;DHT22;11729;50.836;4.330;2023-09-12T12:35:22;33.00;82.80
23120;DHT22;11729;50.836;4.330;2023-09-12T12:37:53;32.70;81.70
23120;DHT22;11729;50.836;4.330;2023-09-12T12:40:19;32.60;82.60
23120;DHT22;11729;50.836;4.330;2023-09-12T12:42:45;32.10;86.80
23120;DHT22;11729;50.836;4.330;2023-09-12T12:45:16;31.90;87.30
23120;DHT22;11729;50.836;4.330;2023-09-12T12:47:43;31.60;87.50
23120;DHT22;11729;50.836;4.330;2023-09-12T12:50:11;31.30;88.40
23120;DHT22;11729;50.836;4.330;2023-09-12T12:52:37;30.80;91.10
23120;DHT22;11729;50.836;4.330;2023-09-12T12:55:07;30.40;93.30
23120;DHT22;11729;50.836;4.330;2023-09-12T12:57:38;30.10;94.20
23120;DHT22;11729;50.836;4.330;2023-09-12T13:00:14;30.20;94.50
23120;DHT22;11729;50.836;4.330;2023-09-12T13:02:42;29.80;94.20
23120;DHT22;11729;50.836;4.330;2023-09-12T13:05:25;29.50;95.80
23120;DHT22;11729;50.836;4.330;2023-09-12T13:07:50;29.50;95.90
23120;DHT22;11729;50.836;4.330;2023-09-12T13:10:17;29.40;95.30
23120;DHT22;11729;50.836;4.330;2023-09-12T13:12:42;29.40;95.80
23120;DHT22;11729;50.836;4.330;2023-09-12T13:15:11;29.40;96.60
23120;DHT22;11729;50.836;4.330;2023-09-12T13:17:37;29.20;96.20
23120;DHT22;11729;50.836;4.330;2023-09-12T13:20:03;29.20;96.10
23120;DHT22;11729;50.836;4.330;2023-09-12T13:22:29;29.30;95.80
23120;DHT22;11729;50.836;4.330;2023-09-12T13:24:54;29.10;96.00
23120;DHT22;11729;50.836;4.330;2023-09-12T13:27:20;28.80;96.90
23120;DHT22;11729;50.836;4.330;2023-09-12T13:29:46;28.80;96.90
23120;DHT22;11729;50.836;4.330;2023-09-12T13:32:13;28.90;96.80
23120;DHT22;11729;50.836;4.330;2023-09-12T13:34:40;28.80;97.50
23120;DHT22;11729;50.836;4.330;2023-09-12T13:37:06;28.70;98.00
23120;DHT22;11729;50.836;4.330;2023-09-12T13:39:32;28.80;98.20
23120;DHT22;11729;50.836;4.330;2023-09-12T13:41:57;28.80;98.00
23120;DHT22;11729;50.836;4.330;2023-09-12T13:44:25;28.80;98.20
23120;DHT22;11729;50.836;4.330;2023-09-12T13:46:53;28.80;98.30
23120;DHT22;11729;50.836;4.330;2023-09-12T13:49:18;28.70;98.80
23120;DHT22;11729;50.836;4.330;2023-09-12T13:51:44;28.60;99.40
23120;DHT22;11729;50.836;4.330;2023-09-12T13:54:09;28.50;99.90
23120;DHT22;11729;50.836;4.330;2023-09-12T13:56:40;28.50;99.90
23120;DHT22;11729;50.836;4.330;2023-09-12T13:59:07;28.40;99.20
23120;DHT22;11729;50.836;4.330;2023-09-12T14:01:33;28.10;99.90
23120;DHT22;11729;50.836;4.330;2023-09-12T14:03:58;28.10;99.90
23120;DHT22;11729;50.836;4.330;2023-09-12T14:06:24;27.90;99.90
23120;DHT22;11729;50.836;4.330;2023-09-12T14:08:50;27.70;99.90
23120;DHT22;11729;50.836;4.330;2023-09-12T14:11:16;27.70;99.90
23120;DHT22;11729;50.836;4.330;2023-09-12T14:13:43;27.70;99.90
23120;DHT22;11729;50.836;4.330;2023-09-12T14:16:08;27.70;99.90
23120;DHT22;11729;50.836;4.330;2023-09-12T14:18:34;27.80;99.90
23120;DHT22;11729;50.836;4.330;2023-09-12T14:21:00;27.80;99.90
23120;DHT22;11729;50.836;4.330;2023-09-12T14:23:25;27.60;99.90
23120;DHT22;11729;50.836;4.330;2023-09-12T14:25:51;27.60;99.90
23120;DHT22;11729;50.836;4.330;2023-09-12T14:28:17;27.40;99.90
23120;DHT22;11729;50.836;4.330;2023-09-12T14:30:43;27.30;99.90
23120;DHT22;11729;50.836;4.330;2023-09-12T14:33:10;27.50;99.90
23120;DHT22;11729;50.836;4.330;2023-09-12T14:35:37;27.60;99.90
23120;DHT22;11729;50.836;4.330;2023-09-12T14:38:03;27.50;99.90
23120;DHT22;11729;50.836;4.330;2023-09-12T14:40:29;27.50;99.90
23120;DHT22;11729;50.836;4.330;2023-09-12T14:42:55;27.50;99.90
23120;DHT22;11729;50.836;4.330;2023-09-12T14:45:21;27.40;99.90
23120;DHT22;11729;50.836;4.330;2023-09-12T14:47:47;27.40;99.90
23120;DHT22;11729;50.836;4.330;2023-09-12T14:50:14;27.30;99.90
23120;DHT22;11729;50.836;4.330;2023-09-12T14:52:40;27.30;99.90
23120;DHT22;11729;50.836;4.330;2023-09-12T14:55:07;27.40;99.90
23120;DHT22;11729;50.836;4.330;2023-09-12T14:57:34;27.30;99.90
23120;DHT22;11729;50.836;4.330;2023-09-12T15:00:00;27.30;99.90
23120;DHT22;11729;50.836;4.330;2023-09-12T15:02:26;27.30;99.90
23120;DHT22;11729;50.836;4.330;2023-09-12T15:04:57;27.30;99.90
23120;DHT22;11729;50.836;4.330;2023-09-12T15:07:23;27.30;99.90
23120;DHT22;11729;50.836;4.330;2023-09-12T15:09:50;27.10;99.90
23120;DHT22;11729;50.836;4.330;2023-09-12T15:12:15;27.10;99.90
23120;DHT22;11729;50.836;4.330;2023-09-12T15:14:41;27.20;99.90
23120;DHT22;11729;50.836;4.330;2023-09-12T15:17:06;27.20;99.90
23120;DHT22;11729;50.836;4.330;2023-09-12T15:19:33;27.20;99.90
23120;DHT22;11729;50.836;4.330;2023-09-12T15:21:59;27.10;99.90
23120;DHT22;11729;50.836;4.330;2023-09-12T15:24:24;27.10;99.90
23120;DHT22;11729;50.836;4.330;2023-09-12T15:26:51;27.10;99.90
23120;DHT22;11729;50.836;4.330;2023-09-12T15:29:17;27.00;99.90
23120;DHT22;11729;50.836;4.330;2023-09-12T15:31:43;26.80;99.90
23120;DHT22;11729;50.836;4.330;2023-09-12T15:34:08;26.60;99.90
23120;DHT22;11729;50.836;4.330;2023-09-12T15:36:44;26.60;99.90
23120;DHT22;11729;50.836;4.330;2023-09-12T15:39:10;26.60;99.90
23120;DHT22;11729;50.836;4.330;2023-09-12T15:41:36;26.50;99.90
23120;DHT22;11729;50.836;4.330;2023-09-12T15:44:02;26.40;99.90
23120;DHT22;11729;50.836;4.330;2023-09-12T15:46:31;26.40;99.90
23120;DHT22;11729;50.836;4.330;2023-09-12T15:48:57;26.40;99.90
23120;DHT22;11729;50.836;4.330;2023-09-12T15:51:23;26.30;99.90
23120;DHT22;11729;50.836;4.330;2023-09-12T15:53:49;26.10;99.90